sensor_id;sensor_type;location;lat;lon;timestamp;P1;durP1;ratioP1;P2;durP2;ratioP2
55633;SDS011;41504;53.162;6.788;2023-05-10T00:01:34;9.55;;;7.78;;
55633;SDS011;41504;53.162;6.788;2023-05-10T00:04:00;8.68;;;7.20;;
55633;SDS011;41504;53.162;6.788;2023-05-10T00:06:26;9.82;;;7.97;;
55633;SDS011;41504;53.162;6.788;2023-05-10T00:08:51;8.80;;;7.13;;
55633;SDS011;41504;53.162;6.788;2023-05-10T00:11:20;9.07;;;7.40;;
55633;SDS011;41504;53.162;6.788;2023-05-10T00:13:46;10.63;;;8.20;;
55633;SDS011;41504;53.162;6.788;2023-05-10T00:16:12;9.52;;;7.70;;
55633;SDS011;41504;53.162;6.788;2023-05-10T00:18:38;9.73;;;8.15;;
55633;SDS011;41504;53.162;6.788;2023-05-10T00:21:05;11.15;;;8.57;;
55633;SDS011;41504;53.162;6.788;2023-05-10T00:23:31;10.27;;;8.68;;
55633;SDS011;41504;53.162;6.788;2023-05-10T00:25:57;11.10;;;8.70;;
55633;SDS011;41504;53.162;6.788;2023-05-10T00:28:23;9.77;;;7.88;;
55633;SDS011;41504;53.162;6.788;2023-05-10T00:30:48;11.07;;;8.95;;
55633;SDS011;41504;53.162;6.788;2023-05-10T00:33:14;11.00;;;9.20;;
55633;SDS011;41504;53.162;6.788;2023-05-10T00:35:40;10.27;;;8.52;;
55633;SDS011;41504;53.162;6.788;2023-05-10T00:38:05;10.43;;;8.65;;
55633;SDS011;41504;53.162;6.788;2023-05-10T00:40:31;10.05;;;8.50;;
55633;SDS011;41504;53.162;6.788;2023-05-10T00:42:57;11.60;;;8.27;;
55633;SDS011;41504;53.162;6.788;2023-05-10T00:45:25;11.32;;;8.35;;
55633;SDS011;41504;53.162;6.788;2023-05-10T00:47:54;10.25;;;8.55;;
55633;SDS011;41504;53.162;6.788;2023-05-10T00:50:24;9.90;;;7.97;;
55633;SDS011;41504;53.162;6.788;2023-05-10T00:52:52;9.73;;;8.00;;
55633;SDS011;41504;53.162;6.788;2023-05-10T00:55:18;8.77;;;6.90;;
55633;SDS011;41504;53.162;6.788;2023-05-10T00:57:44;9.95;;;7.80;;
55633;SDS011;41504;53.162;6.788;2023-05-10T01:00:10;8.88;;;7.28;;
55633;SDS011;41504;53.162;6.788;2023-05-10T01:02:37;8.98;;;6.95;;
55633;SDS011;41504;53.162;6.788;2023-05-10T01:05:03;10.27;;;8.25;;
55633;SDS011;41504;53.162;6.788;2023-05-10T01:07:32;10.02;;;7.68;;
55633;SDS011;41504;53.162;6.788;2023-05-10T01:09:58;9.55;;;7.43;;
55633;SDS011;41504;53.162;6.788;2023-05-10T01:12:24;11.43;;;8.25;;
55633;SDS011;41504;53.162;6.788;2023-05-10T01:14:50;11.70;;;8.55;;
55633;SDS011;41504;53.162;6.788;2023-05-10T01:17:16;10.20;;;7.78;;
55633;SDS011;41504;53.162;6.788;2023-05-10T01:19:42;11.50;;;8.48;;
55633;SDS011;41504;53.162;6.788;2023-05-10T01:22:15;11.20;;;8.43;;
55633;SDS011;41504;53.162;6.788;2023-05-10T01:36:03;12.63;;;9.30;;
55633;SDS011;41504;53.162;6.788;2023-05-10T01:38:46;11.40;;;8.43;;
55633;SDS011;41504;53.162;6.788;2023-05-10T01:46:37;10.67;;;7.93;;
55633;SDS011;41504;53.162;6.788;2023-05-10T01:49:08;10.52;;;8.00;;
55633;SDS011;41504;53.162;6.788;2023-05-10T01:51:43;10.15;;;7.32;;
55633;SDS011;41504;53.162;6.788;2023-05-10T01:56:38;9.77;;;7.28;;
55633;SDS011;41504;53.162;6.788;2023-05-10T01:59:07;10.35;;;7.15;;
55633;SDS011;41504;53.162;6.788;2023-05-10T02:01:37;10.52;;;7.78;;
55633;SDS011;41504;53.162;6.788;2023-05-10T02:04:04;10.60;;;7.35;;
55633;SDS011;41504;53.162;6.788;2023-05-10T02:06:32;10.30;;;7.35;;
55633;SDS011;41504;53.162;6.788;2023-05-10T02:08:59;9.13;;;7.35;;
55633;SDS011;41504;53.162;6.788;2023-05-10T02:11:27;9.93;;;7.47;;
55633;SDS011;41504;53.162;6.788;2023-05-10T02:13:54;10.07;;;7.53;;
55633;SDS011;41504;53.162;6.788;2023-05-10T02:16:22;9.13;;;7.30;;
55633;SDS011;41504;53.162;6.788;2023-05-10T02:18:50;9.95;;;7.32;;
55633;SDS011;41504;53.162;6.788;2023-05-10T02:21:17;9.52;;;7.18;;
55633;SDS011;41504;53.162;6.788;2023-05-10T02:23:45;9.50;;;7.10;;
55633;SDS011;41504;53.162;6.788;2023-05-10T02:26:13;10.38;;;7.65;;
55633;SDS011;41504;53.162;6.788;2023-05-10T02:28:40;10.55;;;7.28;;
55633;SDS011;41504;53.162;6.788;2023-05-10T02:31:07;9.18;;;7.15;;
55633;SDS011;41504;53.162;6.788;2023-05-10T02:33:36;9.30;;;7.40;;
55633;SDS011;41504;53.162;6.788;2023-05-10T02:36:07;10.80;;;7.35;;
55633;SDS011;41504;53.162;6.788;2023-05-10T02:38:34;10.18;;;7.50;;
55633;SDS011;41504;53.162;6.788;2023-05-10T02:41:01;10.80;;;8.32;;
55633;SDS011;41504;53.162;6.788;2023-05-10T02:43:27;10.38;;;7.82;;
55633;SDS011;41504;53.162;6.788;2023-05-10T02:45:57;10.15;;;8.02;;
55633;SDS011;41504;53.162;6.788;2023-05-10T02:48:22;10.65;;;7.97;;
55633;SDS011;41504;53.162;6.788;2023-05-10T02:50:48;10.55;;;8.20;;
55633;SDS011;41504;53.162;6.788;2023-05-10T02:53:26;10.65;;;7.82;;
55633;SDS011;41504;53.162;6.788;2023-05-10T02:56:06;9.40;;;7.13;;
55633;SDS011;41504;53.162;6.788;2023-05-10T02:58:45;8.60;;;7.05;;
55633;SDS011;41504;53.162;6.788;2023-05-10T03:01:11;9.98;;;7.68;;
55633;SDS011;41504;53.162;6.788;2023-05-10T03:03:37;9.98;;;7.60;;
55633;SDS011;41504;53.162;6.788;2023-05-10T03:06:02;9.95;;;7.72;;
55633;SDS011;41504;53.162;6.788;2023-05-10T03:08:32;9.55;;;7.45;;
55633;SDS011;41504;53.162;6.788;2023-05-10T03:14:21;11.07;;;8.35;;
55633;SDS011;41504;53.162;6.788;2023-05-10T03:16:58;10.82;;;8.27;;
55633;SDS011;41504;53.162;6.788;2023-05-10T03:19:36;11.77;;;8.95;;
55633;SDS011;41504;53.162;6.788;2023-05-10T03:22:10;10.63;;;8.10;;
55633;SDS011;41504;53.162;6.788;2023-05-10T03:24:43;12.23;;;8.32;;
55633;SDS011;41504;53.162;6.788;2023-05-10T03:27:10;11.43;;;8.82;;
55633;SDS011;41504;53.162;6.788;2023-05-10T03:29:37;12.38;;;9.15;;
55633;SDS011;41504;53.162;6.788;2023-05-10T03:32:07;13.85;;;9.57;;
55633;SDS011;41504;53.162;6.788;2023-05-10T03:34:33;13.15;;;9.98;;
55633;SDS011;41504;53.162;6.788;2023-05-10T03:36:58;12.65;;;10.45;;
55633;SDS011;41504;53.162;6.788;2023-05-10T03:39:24;15.02;;;9.57;;
55633;SDS011;41504;53.162;6.788;2023-05-10T03:41:50;14.32;;;9.98;;
55633;SDS011;41504;53.162;6.788;2023-05-10T03:44:16;13.48;;;10.10;;
55633;SDS011;41504;53.162;6.788;2023-05-10T03:46:41;14.80;;;10.25;;
55633;SDS011;41504;53.162;6.788;2023-05-10T03:49:07;16.73;;;10.60;;
55633;SDS011;41504;53.162;6.788;2023-05-10T03:51:33;15.20;;;10.95;;
55633;SDS011;41504;53.162;6.788;2023-05-10T03:53:58;15.05;;;10.70;;
55633;SDS011;41504;53.162;6.788;2023-05-10T03:56:24;17.10;;;11.18;;
55633;SDS011;41504;53.162;6.788;2023-05-10T03:58:50;17.83;;;12.05;;
55633;SDS011;41504;53.162;6.788;2023-05-10T04:01:15;17.90;;;11.68;;
55633;SDS011;41504;53.162;6.788;2023-05-10T04:03:41;18.00;;;11.95;;
55633;SDS011;41504;53.162;6.788;2023-05-10T04:06:07;17.33;;;12.70;;
55633;SDS011;41504;53.162;6.788;2023-05-10T04:08:35;19.05;;;12.43;;
55633;SDS011;41504;53.162;6.788;2023-05-10T04:11:08;18.48;;;11.80;;
55633;SDS011;41504;53.162;6.788;2023-05-10T04:13:34;20.02;;;12.05;;
55633;SDS011;41504;53.162;6.788;2023-05-10T04:16:00;18.75;;;12.95;;
55633;SDS011;41504;53.162;6.788;2023-05-10T04:18:26;17.75;;;12.23;;
55633;SDS011;41504;53.162;6.788;2023-05-10T04:20:52;18.75;;;12.65;;
55633;SDS011;41504;53.162;6.788;2023-05-10T04:23:18;17.88;;;12.40;;
55633;SDS011;41504;53.162;6.788;2023-05-10T04:25:43;17.77;;;12.25;;
55633;SDS011;41504;53.162;6.788;2023-05-10T04:28:09;18.45;;;12.07;;
55633;SDS011;41504;53.162;6.788;2023-05-10T04:30:35;20.23;;;13.25;;
55633;SDS011;41504;53.162;6.788;2023-05-10T04:33:01;19.63;;;12.45;;
55633;SDS011;41504;53.162;6.788;2023-05-10T04:35:29;17.50;;;11.88;;
55633;SDS011;41504;53.162;6.788;2023-05-10T04:37:55;19.60;;;12.65;;
55633;SDS011;41504;53.162;6.788;2023-05-10T04:40:21;19.25;;;12.20;;
55633;SDS011;41504;53.162;6.788;2023-05-10T04:42:46;18.77;;;12.02;;
55633;SDS011;41504;53.162;6.788;2023-05-10T04:45:12;16.30;;;10.93;;
55633;SDS011;41504;53.162;6.788;2023-05-10T04:47:39;15.77;;;11.18;;
55633;SDS011;41504;53.162;6.788;2023-05-10T04:50:05;18.10;;;11.05;;
55633;SDS011;41504;53.162;6.788;2023-05-10T04:52:32;16.83;;;11.23;;
55633;SDS011;41504;53.162;6.788;2023-05-10T04:54:58;17.75;;;11.75;;
55633;SDS011;41504;53.162;6.788;2023-05-10T04:57:23;15.60;;;10.35;;
55633;SDS011;41504;53.162;6.788;2023-05-10T04:59:49;17.02;;;10.05;;
55633;SDS011;41504;53.162;6.788;2023-05-10T05:02:15;15.35;;;10.43;;
55633;SDS011;41504;53.162;6.788;2023-05-10T05:04:41;13.95;;;9.40;;
55633;SDS011;41504;53.162;6.788;2023-05-10T05:07:07;15.65;;;9.98;;
55633;SDS011;41504;53.162;6.788;2023-05-10T05:09:33;14.57;;;9.55;;
55633;SDS011;41504;53.162;6.788;2023-05-10T05:11:58;12.43;;;9.10;;
55633;SDS011;41504;53.162;6.788;2023-05-10T05:14:24;13.23;;;8.25;;
55633;SDS011;41504;53.162;6.788;2023-05-10T05:16:53;12.77;;;8.50;;
55633;SDS011;41504;53.162;6.788;2023-05-10T05:19:19;14.07;;;8.13;;
55633;SDS011;41504;53.162;6.788;2023-05-10T05:21:44;10.88;;;7.38;;
55633;SDS011;41504;53.162;6.788;2023-05-10T05:24:10;8.40;;;5.43;;
55633;SDS011;41504;53.162;6.788;2023-05-10T05:26:37;8.77;;;5.32;;
55633;SDS011;41504;53.162;6.788;2023-05-10T05:29:03;7.07;;;4.18;;
55633;SDS011;41504;53.162;6.788;2023-05-10T05:31:29;6.07;;;4.07;;
55633;SDS011;41504;53.162;6.788;2023-05-10T05:33:55;5.80;;;3.60;;
55633;SDS011;41504;53.162;6.788;2023-05-10T05:36:21;6.05;;;3.50;;
55633;SDS011;41504;53.162;6.788;2023-05-10T05:38:47;5.50;;;3.25;;
55633;SDS011;41504;53.162;6.788;2023-05-10T05:41:12;5.35;;;3.10;;
55633;SDS011;41504;53.162;6.788;2023-05-10T05:43:38;4.95;;;2.90;;
55633;SDS011;41504;53.162;6.788;2023-05-10T05:46:04;5.07;;;2.85;;
55633;SDS011;41504;53.162;6.788;2023-05-10T05:48:30;5.45;;;2.90;;
55633;SDS011;41504;53.162;6.788;2023-05-10T05:50:56;5.05;;;2.83;;
55633;SDS011;41504;53.162;6.788;2023-05-10T05:53:22;4.70;;;2.80;;
55633;SDS011;41504;53.162;6.788;2023-05-10T05:55:55;5.20;;;2.80;;
55633;SDS011;41504;53.162;6.788;2023-05-10T05:58:22;5.93;;;3.00;;
55633;SDS011;41504;53.162;6.788;2023-05-10T06:00:49;5.30;;;3.00;;
55633;SDS011;41504;53.162;6.788;2023-05-10T06:03:16;6.38;;;3.17;;
55633;SDS011;41504;53.162;6.788;2023-05-10T06:05:43;5.13;;;3.08;;
55633;SDS011;41504;53.162;6.788;2023-05-10T06:08:09;4.90;;;3.20;;
55633;SDS011;41504;53.162;6.788;2023-05-10T06:10:35;6.00;;;3.50;;
55633;SDS011;41504;53.162;6.788;2023-05-10T06:13:00;4.88;;;3.05;;
55633;SDS011;41504;53.162;6.788;2023-05-10T06:15:26;6.53;;;3.22;;
55633;SDS011;41504;53.162;6.788;2023-05-10T06:17:52;5.10;;;3.20;;
55633;SDS011;41504;53.162;6.788;2023-05-10T06:20:18;5.13;;;2.65;;
55633;SDS011;41504;53.162;6.788;2023-05-10T06:22:44;4.97;;;2.95;;
55633;SDS011;41504;53.162;6.788;2023-05-10T06:25:10;6.63;;;3.45;;
55633;SDS011;41504;53.162;6.788;2023-05-10T06:27:36;5.07;;;3.08;;
55633;SDS011;41504;53.162;6.788;2023-05-10T06:30:02;4.82;;;2.72;;
55633;SDS011;41504;53.162;6.788;2023-05-10T06:32:28;4.50;;;2.78;;
55633;SDS011;41504;53.162;6.788;2023-05-10T06:34:53;5.07;;;2.88;;
55633;SDS011;41504;53.162;6.788;2023-05-10T06:37:19;5.15;;;2.80;;
55633;SDS011;41504;53.162;6.788;2023-05-10T06:39:45;5.45;;;2.70;;
55633;SDS011;41504;53.162;6.788;2023-05-10T06:42:11;5.05;;;2.55;;
55633;SDS011;41504;53.162;6.788;2023-05-10T06:44:36;5.60;;;2.85;;
55633;SDS011;41504;53.162;6.788;2023-05-10T06:47:02;4.47;;;2.50;;
55633;SDS011;41504;53.162;6.788;2023-05-10T06:49:28;5.22;;;2.67;;
55633;SDS011;41504;53.162;6.788;2023-05-10T06:51:55;4.03;;;2.17;;
55633;SDS011;41504;53.162;6.788;2023-05-10T06:54:21;4.68;;;2.58;;
55633;SDS011;41504;53.162;6.788;2023-05-10T06:56:46;4.80;;;2.25;;
55633;SDS011;41504;53.162;6.788;2023-05-10T06:59:12;4.50;;;2.17;;
55633;SDS011;41504;53.162;6.788;2023-05-10T07:01:38;4.95;;;2.50;;
55633;SDS011;41504;53.162;6.788;2023-05-10T07:04:04;5.90;;;2.67;;
55633;SDS011;41504;53.162;6.788;2023-05-10T07:06:30;5.85;;;2.67;;
55633;SDS011;41504;53.162;6.788;2023-05-10T07:08:56;6.30;;;2.97;;
55633;SDS011;41504;53.162;6.788;2023-05-10T07:11:22;5.40;;;3.25;;
55633;SDS011;41504;53.162;6.788;2023-05-10T07:13:47;5.68;;;3.35;;
55633;SDS011;41504;53.162;6.788;2023-05-10T07:16:13;6.72;;;3.85;;
55633;SDS011;41504;53.162;6.788;2023-05-10T07:18:39;7.30;;;4.50;;
55633;SDS011;41504;53.162;6.788;2023-05-10T07:21:04;7.82;;;4.50;;
55633;SDS011;41504;53.162;6.788;2023-05-10T07:23:30;7.68;;;4.88;;
55633;SDS011;41504;53.162;6.788;2023-05-10T07:25:56;7.10;;;4.60;;
55633;SDS011;41504;53.162;6.788;2023-05-10T07:28:22;7.10;;;4.43;;
55633;SDS011;41504;53.162;6.788;2023-05-10T07:30:49;7.60;;;4.10;;
55633;SDS011;41504;53.162;6.788;2023-05-10T07:33:15;6.03;;;3.60;;
55633;SDS011;41504;53.162;6.788;2023-05-10T07:35:41;6.68;;;3.53;;
55633;SDS011;41504;53.162;6.788;2023-05-10T07:38:07;7.65;;;3.80;;
55633;SDS011;41504;53.162;6.788;2023-05-10T07:40:33;6.30;;;3.20;;
55633;SDS011;41504;53.162;6.788;2023-05-10T07:42:59;5.47;;;3.50;;
55633;SDS011;41504;53.162;6.788;2023-05-10T07:45:27;6.97;;;3.92;;
55633;SDS011;41504;53.162;6.788;2023-05-10T07:47:53;6.82;;;4.00;;
55633;SDS011;41504;53.162;6.788;2023-05-10T07:50:19;7.13;;;4.40;;
55633;SDS011;41504;53.162;6.788;2023-05-10T07:52:46;6.85;;;4.50;;
55633;SDS011;41504;53.162;6.788;2023-05-10T07:55:13;6.75;;;4.25;;
55633;SDS011;41504;53.162;6.788;2023-05-10T07:57:39;7.63;;;4.43;;
55633;SDS011;41504;53.162;6.788;2023-05-10T08:00:05;7.63;;;4.60;;
55633;SDS011;41504;53.162;6.788;2023-05-10T08:02:32;7.88;;;4.78;;
55633;SDS011;41504;53.162;6.788;2023-05-10T08:04:59;6.00;;;3.95;;
55633;SDS011;41504;53.162;6.788;2023-05-10T08:07:25;5.82;;;3.58;;
55633;SDS011;41504;53.162;6.788;2023-05-10T08:09:51;6.13;;;3.65;;
55633;SDS011;41504;53.162;6.788;2023-05-10T08:12:16;5.35;;;3.50;;
55633;SDS011;41504;53.162;6.788;2023-05-10T08:14:43;5.72;;;3.70;;
55633;SDS011;41504;53.162;6.788;2023-05-10T08:17:08;5.38;;;3.35;;
55633;SDS011;41504;53.162;6.788;2023-05-10T08:19:34;5.70;;;3.55;;
55633;SDS011;41504;53.162;6.788;2023-05-10T08:22:00;4.80;;;3.28;;
55633;SDS011;41504;53.162;6.788;2023-05-10T08:24:25;5.30;;;3.45;;
55633;SDS011;41504;53.162;6.788;2023-05-10T08:26:51;6.05;;;3.47;;
55633;SDS011;41504;53.162;6.788;2023-05-10T08:29:17;5.65;;;3.08;;
55633;SDS011;41504;53.162;6.788;2023-05-10T08:31:43;5.50;;;3.22;;
55633;SDS011;41504;53.162;6.788;2023-05-10T08:34:09;4.65;;;3.10;;
55633;SDS011;41504;53.162;6.788;2023-05-10T08:36:34;6.43;;;3.25;;
55633;SDS011;41504;53.162;6.788;2023-05-10T08:39:01;4.25;;;2.78;;
55633;SDS011;41504;53.162;6.788;2023-05-10T08:41:27;4.43;;;3.03;;
55633;SDS011;41504;53.162;6.788;2023-05-10T08:43:53;4.95;;;3.10;;
55633;SDS011;41504;53.162;6.788;2023-05-10T08:46:20;6.40;;;3.90;;
55633;SDS011;41504;53.162;6.788;2023-05-10T08:48:47;6.15;;;4.25;;
55633;SDS011;41504;53.162;6.788;2023-05-10T08:51:17;6.80;;;4.63;;
55633;SDS011;41504;53.162;6.788;2023-05-10T08:53:44;6.47;;;4.55;;
55633;SDS011;41504;53.162;6.788;2023-05-10T08:56:10;6.82;;;4.60;;
55633;SDS011;41504;53.162;6.788;2023-05-10T08:58:37;6.80;;;4.63;;
55633;SDS011;41504;53.162;6.788;2023-05-10T09:01:03;8.55;;;5.47;;
55633;SDS011;41504;53.162;6.788;2023-05-10T09:03:30;7.18;;;4.95;;
55633;SDS011;41504;53.162;6.788;2023-05-10T09:05:56;8.45;;;5.30;;
55633;SDS011;41504;53.162;6.788;2023-05-10T09:08:25;9.88;;;5.88;;
55633;SDS011;41504;53.162;6.788;2023-05-10T09:10:52;7.90;;;4.90;;
55633;SDS011;41504;53.162;6.788;2023-05-10T09:13:18;8.02;;;5.55;;
55633;SDS011;41504;53.162;6.788;2023-05-10T09:15:46;8.75;;;5.82;;
55633;SDS011;41504;53.162;6.788;2023-05-10T09:18:13;8.05;;;5.90;;
55633;SDS011;41504;53.162;6.788;2023-05-10T09:20:39;8.38;;;5.38;;
55633;SDS011;41504;53.162;6.788;2023-05-10T09:23:05;9.05;;;5.82;;
55633;SDS011;41504;53.162;6.788;2023-05-10T09:25:31;7.95;;;5.90;;
55633;SDS011;41504;53.162;6.788;2023-05-10T09:28:00;8.23;;;5.60;;
55633;SDS011;41504;53.162;6.788;2023-05-10T09:30:26;8.90;;;6.13;;
55633;SDS011;41504;53.162;6.788;2023-05-10T09:32:56;9.48;;;5.20;;
55633;SDS011;41504;53.162;6.788;2023-05-10T09:35:24;7.95;;;4.93;;
55633;SDS011;41504;53.162;6.788;2023-05-10T09:37:52;7.30;;;5.20;;
55633;SDS011;41504;53.162;6.788;2023-05-10T09:40:21;6.43;;;4.50;;
55633;SDS011;41504;53.162;6.788;2023-05-10T09:43:03;6.80;;;4.78;;
55633;SDS011;41504;53.162;6.788;2023-05-10T09:45:32;6.50;;;4.40;;
55633;SDS011;41504;53.162;6.788;2023-05-10T09:48:00;7.97;;;4.85;;
55633;SDS011;41504;53.162;6.788;2023-05-10T09:50:27;6.90;;;4.55;;
55633;SDS011;41504;53.162;6.788;2023-05-10T09:52:54;6.68;;;4.20;;
55633;SDS011;41504;53.162;6.788;2023-05-10T09:55:24;6.88;;;4.47;;
55633;SDS011;41504;53.162;6.788;2023-05-10T09:58:00;6.47;;;4.45;;
55633;SDS011;41504;53.162;6.788;2023-05-10T10:00:27;6.60;;;4.25;;
55633;SDS011;41504;53.162;6.788;2023-05-10T10:02:54;7.78;;;4.50;;
55633;SDS011;41504;53.162;6.788;2023-05-10T10:05:27;7.40;;;4.65;;
55633;SDS011;41504;53.162;6.788;2023-05-10T10:07:53;9.07;;;5.50;;
55633;SDS011;41504;53.162;6.788;2023-05-10T10:10:20;7.50;;;4.82;;
55633;SDS011;41504;53.162;6.788;2023-05-10T10:12:46;7.00;;;4.50;;
55633;SDS011;41504;53.162;6.788;2023-05-10T10:15:13;8.40;;;4.95;;
55633;SDS011;41504;53.162;6.788;2023-05-10T10:17:40;6.47;;;4.43;;
55633;SDS011;41504;53.162;6.788;2023-05-10T10:20:08;7.72;;;5.15;;
55633;SDS011;41504;53.162;6.788;2023-05-10T10:22:34;6.82;;;4.53;;
55633;SDS011;41504;53.162;6.788;2023-05-10T10:25:01;6.93;;;4.50;;
55633;SDS011;41504;53.162;6.788;2023-05-10T10:35:14;6.43;;;4.00;;
55633;SDS011;41504;53.162;6.788;2023-05-10T10:37:43;8.68;;;4.72;;
55633;SDS011;41504;53.162;6.788;2023-05-10T10:40:29;7.25;;;4.03;;
55633;SDS011;41504;53.162;6.788;2023-05-10T10:42:56;7.15;;;4.32;;
55633;SDS011;41504;53.162;6.788;2023-05-10T10:45:23;6.60;;;4.00;;
55633;SDS011;41504;53.162;6.788;2023-05-10T10:47:53;9.30;;;5.65;;
55633;SDS011;41504;53.162;6.788;2023-05-10T10:50:44;8.07;;;4.55;;
55633;SDS011;41504;53.162;6.788;2023-05-10T10:53:11;6.55;;;4.13;;
55633;SDS011;41504;53.162;6.788;2023-05-10T10:55:44;6.63;;;4.20;;
55633;SDS011;41504;53.162;6.788;2023-05-10T10:58:12;6.97;;;4.35;;
55633;SDS011;41504;53.162;6.788;2023-05-10T11:03:37;6.97;;;4.30;;
55633;SDS011;41504;53.162;6.788;2023-05-10T11:06:02;7.40;;;4.50;;
55633;SDS011;41504;53.162;6.788;2023-05-10T11:08:29;8.40;;;4.35;;
55633;SDS011;41504;53.162;6.788;2023-05-10T11:18:28;7.75;;;4.85;;
55633;SDS011;41504;53.162;6.788;2023-05-10T11:20:56;6.80;;;4.05;;
55633;SDS011;41504;53.162;6.788;2023-05-10T11:23:49;7.45;;;4.10;;
55633;SDS011;41504;53.162;6.788;2023-05-10T11:26:16;7.15;;;3.78;;
55633;SDS011;41504;53.162;6.788;2023-05-10T11:31:10;4.53;;;2.80;;
55633;SDS011;41504;53.162;6.788;2023-05-10T11:33:42;6.85;;;3.20;;
55633;SDS011;41504;53.162;6.788;2023-05-10T11:38:38;5.95;;;3.53;;
55633;SDS011;41504;53.162;6.788;2023-05-10T11:41:04;7.30;;;4.30;;
55633;SDS011;41504;53.162;6.788;2023-05-10T11:43:30;8.05;;;4.90;;
55633;SDS011;41504;53.162;6.788;2023-05-10T11:45:56;8.27;;;4.72;;
55633;SDS011;41504;53.162;6.788;2023-05-10T11:48:22;7.68;;;5.18;;
55633;SDS011;41504;53.162;6.788;2023-05-10T11:50:49;8.40;;;5.15;;
55633;SDS011;41504;53.162;6.788;2023-05-10T11:53:15;8.48;;;5.30;;
55633;SDS011;41504;53.162;6.788;2023-05-10T11:55:40;8.40;;;5.43;;
55633;SDS011;41504;53.162;6.788;2023-05-10T11:58:06;8.95;;;5.82;;
55633;SDS011;41504;53.162;6.788;2023-05-10T12:00:32;9.10;;;5.93;;
55633;SDS011;41504;53.162;6.788;2023-05-10T12:02:59;8.88;;;5.80;;
55633;SDS011;41504;53.162;6.788;2023-05-10T12:05:26;8.55;;;5.80;;
55633;SDS011;41504;53.162;6.788;2023-05-10T12:07:52;8.50;;;5.35;;
55633;SDS011;41504;53.162;6.788;2023-05-10T12:10:17;9.50;;;6.43;;
55633;SDS011;41504;53.162;6.788;2023-05-10T12:12:51;9.15;;;5.57;;
55633;SDS011;41504;53.162;6.788;2023-05-10T12:15:18;10.32;;;6.03;;
55633;SDS011;41504;53.162;6.788;2023-05-10T12:17:45;9.02;;;5.93;;
55633;SDS011;41504;53.162;6.788;2023-05-10T12:22:53;10.63;;;6.97;;
55633;SDS011;41504;53.162;6.788;2023-05-10T12:25:23;10.18;;;6.57;;
55633;SDS011;41504;53.162;6.788;2023-05-10T12:27:56;11.68;;;7.57;;
55633;SDS011;41504;53.162;6.788;2023-05-10T12:30:23;10.23;;;7.35;;
55633;SDS011;41504;53.162;6.788;2023-05-10T12:33:00;12.82;;;7.90;;
55633;SDS011;41504;53.162;6.788;2023-05-10T12:35:38;11.48;;;8.32;;
55633;SDS011;41504;53.162;6.788;2023-05-10T12:41:03;12.32;;;7.63;;
55633;SDS011;41504;53.162;6.788;2023-05-10T12:43:31;12.88;;;7.45;;
55633;SDS011;41504;53.162;6.788;2023-05-10T12:45:57;13.00;;;7.28;;
55633;SDS011;41504;53.162;6.788;2023-05-10T12:48:23;10.48;;;6.95;;
55633;SDS011;41504;53.162;6.788;2023-05-10T12:50:50;12.60;;;7.00;;
55633;SDS011;41504;53.162;6.788;2023-05-10T12:53:16;11.15;;;7.25;;
55633;SDS011;41504;53.162;6.788;2023-05-10T12:55:42;10.80;;;6.45;;
55633;SDS011;41504;53.162;6.788;2023-05-10T12:58:08;11.30;;;7.15;;
55633;SDS011;41504;53.162;6.788;2023-05-10T13:00:34;12.02;;;6.47;;
55633;SDS011;41504;53.162;6.788;2023-05-10T13:03:00;10.45;;;6.15;;
55633;SDS011;41504;53.162;6.788;2023-05-10T13:05:26;11.07;;;6.30;;
55633;SDS011;41504;53.162;6.788;2023-05-10T13:07:51;8.98;;;5.60;;
55633;SDS011;41504;53.162;6.788;2023-05-10T13:10:17;9.30;;;5.97;;
55633;SDS011;41504;53.162;6.788;2023-05-10T13:12:43;11.50;;;6.10;;
55633;SDS011;41504;53.162;6.788;2023-05-10T13:15:08;12.15;;;6.72;;
55633;SDS011;41504;53.162;6.788;2023-05-10T13:17:34;10.25;;;6.30;;
55633;SDS011;41504;53.162;6.788;2023-05-10T13:20:00;13.27;;;6.72;;
55633;SDS011;41504;53.162;6.788;2023-05-10T13:22:26;11.35;;;6.78;;
55633;SDS011;41504;53.162;6.788;2023-05-10T13:24:51;9.80;;;6.40;;
55633;SDS011;41504;53.162;6.788;2023-05-10T13:27:17;10.10;;;6.72;;
55633;SDS011;41504;53.162;6.788;2023-05-10T13:29:43;12.73;;;6.65;;
55633;SDS011;41504;53.162;6.788;2023-05-10T13:32:08;12.23;;;7.50;;
55633;SDS011;41504;53.162;6.788;2023-05-10T13:34:34;12.20;;;7.18;;
55633;SDS011;41504;53.162;6.788;2023-05-10T13:37:00;13.00;;;7.47;;
55633;SDS011;41504;53.162;6.788;2023-05-10T13:39:26;12.70;;;7.50;;
55633;SDS011;41504;53.162;6.788;2023-05-10T13:41:52;10.85;;;6.57;;
55633;SDS011;41504;53.162;6.788;2023-05-10T13:44:19;11.50;;;6.80;;
55633;SDS011;41504;53.162;6.788;2023-05-10T13:46:45;13.18;;;7.60;;
55633;SDS011;41504;53.162;6.788;2023-05-10T13:49:11;9.98;;;6.78;;
55633;SDS011;41504;53.162;6.788;2023-05-10T13:51:37;11.13;;;6.85;;
55633;SDS011;41504;53.162;6.788;2023-05-10T13:54:03;11.23;;;7.20;;
55633;SDS011;41504;53.162;6.788;2023-05-10T13:56:28;11.75;;;8.10;;
55633;SDS011;41504;53.162;6.788;2023-05-10T13:58:55;11.43;;;7.40;;
55633;SDS011;41504;53.162;6.788;2023-05-10T14:01:22;12.32;;;8.20;;
55633;SDS011;41504;53.162;6.788;2023-05-10T14:03:48;13.48;;;7.65;;
55633;SDS011;41504;53.162;6.788;2023-05-10T14:06:14;10.90;;;7.40;;
55633;SDS011;41504;53.162;6.788;2023-05-10T14:08:39;10.90;;;6.93;;
55633;SDS011;41504;53.162;6.788;2023-05-10T14:11:06;11.10;;;7.47;;
55633;SDS011;41504;53.162;6.788;2023-05-10T14:13:31;11.05;;;6.60;;
55633;SDS011;41504;53.162;6.788;2023-05-10T14:15:57;10.60;;;6.88;;
55633;SDS011;41504;53.162;6.788;2023-05-10T14:18:25;10.27;;;7.20;;
55633;SDS011;41504;53.162;6.788;2023-05-10T14:20:51;11.25;;;7.20;;
55633;SDS011;41504;53.162;6.788;2023-05-10T14:23:17;13.43;;;7.53;;
55633;SDS011;41504;53.162;6.788;2023-05-10T14:25:45;11.20;;;6.68;;
55633;SDS011;41504;53.162;6.788;2023-05-10T14:28:10;11.60;;;7.28;;
55633;SDS011;41504;53.162;6.788;2023-05-10T14:30:37;13.40;;;7.90;;
55633;SDS011;41504;53.162;6.788;2023-05-10T14:33:03;10.90;;;7.70;;
55633;SDS011;41504;53.162;6.788;2023-05-10T14:35:28;12.35;;;7.38;;
55633;SDS011;41504;53.162;6.788;2023-05-10T14:37:56;11.32;;;7.53;;
55633;SDS011;41504;53.162;6.788;2023-05-10T14:40:22;12.77;;;7.75;;
55633;SDS011;41504;53.162;6.788;2023-05-10T14:42:48;13.10;;;7.50;;
55633;SDS011;41504;53.162;6.788;2023-05-10T14:45:14;12.40;;;7.72;;
55633;SDS011;41504;53.162;6.788;2023-05-10T14:47:40;11.68;;;7.82;;
55633;SDS011;41504;53.162;6.788;2023-05-10T14:50:06;12.00;;;7.45;;
55633;SDS011;41504;53.162;6.788;2023-05-10T14:52:32;12.57;;;7.88;;
55633;SDS011;41504;53.162;6.788;2023-05-10T14:54:58;11.68;;;6.97;;
55633;SDS011;41504;53.162;6.788;2023-05-10T14:57:25;13.63;;;8.68;;
55633;SDS011;41504;53.162;6.788;2023-05-10T14:59:51;12.15;;;7.35;;
55633;SDS011;41504;53.162;6.788;2023-05-10T15:02:16;12.35;;;7.78;;
55633;SDS011;41504;53.162;6.788;2023-05-10T15:04:42;12.73;;;7.78;;
55633;SDS011;41504;53.162;6.788;2023-05-10T15:07:08;12.35;;;7.55;;
55633;SDS011;41504;53.162;6.788;2023-05-10T15:09:33;11.63;;;8.07;;
55633;SDS011;41504;53.162;6.788;2023-05-10T15:11:59;11.93;;;7.38;;
55633;SDS011;41504;53.162;6.788;2023-05-10T15:14:25;12.57;;;7.75;;
55633;SDS011;41504;53.162;6.788;2023-05-10T15:16:51;11.35;;;6.95;;
55633;SDS011;41504;53.162;6.788;2023-05-10T15:19:16;11.90;;;8.00;;
55633;SDS011;41504;53.162;6.788;2023-05-10T15:21:42;13.70;;;7.72;;
55633;SDS011;41504;53.162;6.788;2023-05-10T15:24:09;10.57;;;7.50;;
55633;SDS011;41504;53.162;6.788;2023-05-10T15:26:35;11.27;;;7.88;;
55633;SDS011;41504;53.162;6.788;2023-05-10T15:29:00;11.80;;;7.20;;
55633;SDS011;41504;53.162;6.788;2023-05-10T15:31:26;10.32;;;6.78;;